Cedaredge, CO (81413)

6:02 PM MDT on July 30, 2016 (GMT -0600)
Cedaredge | | Change Station

Elev 6657 ft 38.92 °N, 107.91 °W | Updated 3 minutes ago

Clear
Clear
86.7 °F
Feels Like 83 °F
N
4.7
Wind Variable Wind from SSW

Today
High -- | Low -- °F
--% Chance of Precip.
Yesterday
High -- | Low -- °F
Precip. -- in
Pressure 29.76 in
Visibility 10.0 miles
Clouds Clear
Heat Index 83 °F
Dew Point 41 °F
Humidity 20%
Rainfall 0.00 in
Snow Depth Not available.
6:11 AM 8:24 PM
Waning Crescent, 10% visible
METAR KMTJ 302353Z AUTO 16008KT 10SM CLR 31/04 A3005 RMK AO2 SLP077 T03110039 10317 20283 56020
Pressure 29.76 in
Visibility 10.0 miles
Clouds Clear
Heat Index 83 °F
Dew Point 41 °F
Humidity 20%
Rainfall 0.00 in
Snow Depth Not available.
6:11 AM 8:24 PM
Waning Crescent, 10% visible
METAR KMTJ 302353Z AUTO 16008KT 10SM CLR 31/04 A3005 RMK AO2 SLP077 T03110039 10317 20283 56020

10-Day Weather Forecast

Almanac

Astronomy

Jul. 30, 2016 Rise Set
Actual Time
Civil Twilight
Nautical Twilight
Astronomical Twilight
Moon
Length of Visible Light
Length of Day
Tomorrow will be .
, % of the Moon is Illuminated

Today's Extremes

State Highs State Lows

Community

WunderPhotos

Upload Photos

1,928,682 photos uploaded!

WunderBlog® & News

Nearby

Air Quality

  Air Quality AQ Index Pollutant
Not available.

Snow Depth

Station Depth Elevation

Earthquake Activity

City Distance Mag. Time & Date
Minimum magnitude displayed is 2.5.

Coastal Water Temperatures

Place Temperature

Stations

Nearby Weather Stations

Station Location Temp. Windchill Dew Point Humidity Wind Precip. Elev Updated Type
                   

Watches & Warnings

There are currently no watches in effect.